Hauptseite
METAR-TAF:

METAR-TAF

Flughäfen :

Beauvais, Frankreich

Flughafen Paris-Beauvais-Tillé

Breite: 49-28N, Länge: 002-07E, Höhe: 109 m

Beobachtung

Neuester Wetterbericht von vor 22 Minuten, um 09:00 UTC
Wind 5 kt aus West, variierte zwischen Süd/Südwest und Nord/Nordwest
Temperatur 14°C
Luftfeuchtigkeit 63%
Luftdruck 1019 hPa
Sichtweite 10 km oder mehr
Leicht bewölkt in der Höhe von 2600 ft

METAR: LFOB 230900Z AUTO 28005KT 200V330 9999 FEW026 14/07 Q1019 NOSIG

Zeit: 11:22 (09:22 UTC)

Prognose

Neuester Wetterbericht von vor 4 Stunden und 22 Minuten, um 05:00 UTC
Gültige Prognose vom 23 um 06 UTC bis 24 um 06 UTC
Wind 6 kt aus West
Sichtweite 10 km oder mehr
Durchbrochene Bewölkung in der Höhe von 1200 ft
Übergehend zu
vom 23 um 06 UTC bis 23 um 08 UTC
Aufgelockert bewölkt in der Höhe von 2000 ft

TAF: LFOB 230500Z 2306/2406 28006KT 9999 BKN012 BECMG 2306/2308 SCT020

Wetterbeobachtungen und Prognosen von mehr als 4000 Flughäfen (METAR und TAF Bericht).

Die verfügbaren Stationen werden durch gelbe und rote Markierungen auf der Karte dargestellt.

Führen Sie die Maus auf sie, um den Namen der Station zu sehen.

Darauf klicken, um die Beobachtung von Wetterbeobachtungen und Prognosen zu sehen.

Um die Karte zu ändern : klicken Sie auf den grünen Tasten mit einem schwarzen Kreuz Zum Vergrößern, auf den grünen Button mit einem Gedankenstrich zu verkleinern, oder auf die grünen Pfeile für benachbarte Karten.


METAR-TAF: